Time;durP1;ratioP1;P1;durP2;ratioP2;P2;SDS_P1;SDS_P2;PMS_P1;PMS_P2;Temp;Humidity;BMP_temperature;BMP_pressure;BME280_temperature;BME280_humidity;BME280_pressure;Samples;Min_cycle;Max_cycle;Signal;HPM_P1;HPM_P2
2023/04/09 00:01:10;;;;;;;55.00;36.27;;;;;;;7.89;82.90;101101.77;125499;1099;103985;-78
2023/04/09 00:03:42;;;;;;;55.50;35.38;;;;;;;7.88;82.99;101099.95;125442;1099;101622;-78
2023/04/09 00:06:14;;;;;;;55.17;34.80;;;;;;;7.86;82.59;101101.59;125417;1099;103958;-78
2023/04/09 00:08:46;;;;;;;54.43;34.10;;;;;;;7.84;82.45;101100.63;125442;1098;101833;-80
2023/04/09 00:11:19;;;;;;;50.77;34.40;;;;;;;7.83;82.96;101104.92;125053;1099;103949;-78
2023/04/09 00:13:52;;;;;;;50.80;33.57;;;;;;;7.83;83.16;101098.81;125375;1099;101680;-78
2023/04/09 00:16:24;;;;;;;52.77;33.53;;;;;;;7.81;83.14;101100.45;125330;1099;104003;-78
2023/04/09 00:18:56;;;;;;;50.47;33.20;;;;;;;7.80;83.22;101106.47;125141;1099;103980;-78
2023/04/09 00:21:28;;;;;;;47.90;32.77;;;;;;;7.77;83.25;101104.58;125451;1099;103970;-78
2023/04/09 00:24:00;;;;;;;49.90;33.93;;;;;;;7.77;83.15;101104.58;125344;1099;104198;-78
2023/04/09 00:26:34;;;;;;;51.47;35.27;;;;;;;7.76;83.05;101102.80;125467;1099;102009;-78
2023/04/09 00:29:06;;;;;;;54.77;35.13;;;;;;;7.74;82.98;101102.71;125496;1098;103223;-78
2023/04/09 00:31:38;;;;;;;52.37;34.07;;;;;;;7.73;83.59;101107.84;125434;1099;101926;-79
2023/04/09 00:34:10;;;;;;;51.47;33.50;;;;;;;7.74;83.12;101109.62;125591;1099;104201;-79
2023/04/09 00:36:43;;;;;;;49.27;34.30;;;;;;;7.72;83.27;101111.27;125465;1099;104068;-80
2023/04/09 00:39:15;;;;;;;51.35;34.00;;;;;;;7.69;83.68;101109.36;125468;1099;101856;-79
2023/04/09 00:41:48;;;;;;;50.53;33.47;;;;;;;7.68;83.52;101107.59;124911;1099;101709;-82
2023/04/09 00:44:20;;;;;;;51.73;33.53;;;;;;;7.66;83.47;101108.30;125492;1099;101804;-79
2023/04/09 00:46:52;;;;;;;52.13;33.60;;;;;;;7.65;83.91;101114.33;125580;1099;101802;-79
2023/04/09 00:49:25;;;;;;;50.73;33.30;;;;;;;7.63;83.87;101115.96;125563;1099;101911;-79
2023/04/09 00:51:57;;;;;;;48.90;32.80;;;;;;;7.62;83.55;101111.53;125531;1099;103951;-78
2023/04/09 00:54:29;;;;;;;57.40;35.67;;;;;;;7.61;84.17;101114.98;125447;1099;103948;-79
2023/04/09 00:57:03;;;;;;;51.63;34.10;;;;;;;7.59;83.29;101109.67;125113;1099;103936;-78
2023/04/09 00:59:36;;;;;;;54.13;34.90;;;;;;;7.59;83.80;101117.50;125492;1099;102011;-78
2023/04/09 01:02:08;;;;;;;53.80;34.33;;;;;;;7.58;84.04;101104.36;125524;1098;104006;-78
2023/04/09 01:04:43;;;;;;;49.67;33.17;;;;;;;7.56;84.22;101115.61;125417;1099;103880;-78
2023/04/09 01:07:20;;;;;;;51.97;33.83;;;;;;;7.56;83.88;101112.99;125030;1099;101865;-78
2023/04/09 01:10:01;;;;;;;49.00;32.80;;;;;;;7.55;83.88;101121.63;124882;1099;101750;-78
2023/04/09 01:12:39;;;;;;;50.43;33.27;;;;;;;7.55;83.68;101113.80;125435;1099;103948;-77
2023/04/09 01:15:14;;;;;;;47.95;32.85;;;;;;;7.55;83.68;101113.80;125376;1099;101775;-77
2023/04/09 01:17:52;;;;;;;50.13;32.33;;;;;;;7.54;84.58;101117.23;125172;1099;103852;-78
2023/04/09 01:20:34;;;;;;;49.77;32.70;;;;;;;7.52;84.31;101108.39;125372;1099;103961;-77
2023/04/09 01:23:17;;;;;;;49.70;32.77;;;;;;;7.52;84.26;101111.00;124965;1099;102238;-79
2023/04/09 01:26:04;;;;;;;53.53;34.63;;;;;;;7.51;84.45;101100.47;125357;1099;101914;-79
2023/04/09 01:28:51;;;;;;;50.57;32.93;;;;;;;7.49;84.53;101104.72;124877;1099;104108;-78
2023/04/09 01:31:28;;;;;;;51.83;33.50;;;;;;;7.47;84.65;101115.08;125423;1099;103858;-79
2023/04/09 01:34:02;;;;;;;51.97;33.23;;;;;;;7.44;84.22;101112.28;125093;1099;104152;-79
2023/04/09 01:36:35;;;;;;;49.80;34.00;;;;;;;7.43;84.30;101110.47;125497;1099;101702;-78
2023/04/09 01:39:08;;;;;;;53.33;34.43;;;;;;;7.43;84.71;101107.86;125521;1099;101772;-78
2023/04/09 01:41:41;;;;;;;52.90;33.90;;;;;;;7.38;85.01;101102.38;125385;1099;101743;-78
2023/04/09 01:44:14;;;;;;;52.27;35.10;;;;;;;7.36;85.13;101106.61;125538;1099;103983;-78
2023/04/09 01:46:48;;;;;;;51.10;33.57;;;;;;;7.35;84.77;101109.14;124856;1099;101660;-78
2023/04/09 01:49:21;;;;;;;53.90;33.97;;;;;;;7.34;85.17;101104.75;125484;1098;101580;-77
2023/04/09 01:51:54;;;;;;;52.23;34.23;;;;;;;7.34;84.99;101102.14;125498;1099;103388;-76
2023/04/09 01:54:26;;;;;;;52.77;33.90;;;;;;;7.33;84.85;101105.55;124920;1099;104088;-79
2023/04/09 01:56:59;;;;;;;50.50;32.17;;;;;;;7.32;85.12;101099.44;125484;1099;101677;-80
2023/04/09 01:59:32;;;;;;;49.27;32.55;;;;;;;7.32;84.81;101091.60;125017;1099;101676;-79
2023/04/09 02:02:12;;;;;;;52.90;34.87;;;;;;;7.31;85.23;101097.63;125245;1099;103951;-80
2023/04/09 02:04:49;;;;;;;51.23;33.43;;;;;;;7.27;85.07;101093.02;125579;1099;103942;-79
2023/04/09 02:07:35;;;;;;;54.83;34.83;;;;;;;7.26;85.23;101100.77;125570;1099;101840;-80
2023/04/09 02:10:11;;;;;;;50.00;33.50;;;;;;;7.24;85.27;101110.22;125497;1099;102051;-80
2023/04/09 02:12:50;;;;;;;50.47;32.90;;;;;;;7.22;85.09;101102.30;125550;1098;112880;-79
2023/04/09 02:15:23;;;;;;;49.53;32.07;;;;;;;7.20;85.06;101104.83;125601;1099;104092;-79
2023/04/09 02:17:55;;;;;;;50.15;32.85;;;;;;;7.19;85.14;101102.13;125635;1099;101859;-79
2023/04/09 02:20:28;;;;;;;47.67;32.57;;;;;;;7.19;85.62;101096.91;125534;1099;101907;-79
2023/04/09 02:23:00;;;;;;;49.90;33.40;;;;;;;7.19;85.62;101108.23;124953;1099;101623;-78
2023/04/09 02:25:33;;;;;;;49.60;32.43;;;;;;;7.19;85.42;101110.84;125505;1099;101721;-79
2023/04/09 02:28:05;;;;;;;49.17;32.43;;;;;;;7.20;85.22;101103.94;125074;1099;101886;-78
2023/04/09 02:30:37;;;;;;;49.67;32.73;;;;;;;7.20;85.83;101106.55;125533;1099;101864;-78
2023/04/09 02:33:10;;;;;;;49.30;31.47;;;;;;;7.17;85.33;101103.75;125432;1099;104089;-78
2023/04/09 02:35:42;;;;;;;48.23;32.00;;;;;;;7.16;85.75;101102.83;125622;1099;103993;-79
2023/04/09 02:38:14;;;;;;;50.40;32.47;;;;;;;7.16;85.58;101097.61;125035;1099;102227;-79
2023/04/09 02:40:47;;;;;;;50.07;31.77;;;;;;;7.15;85.48;101097.52;125230;1099;104027;-79
2023/04/09 02:43:19;;;;;;;47.90;31.73;;;;;;;7.14;85.56;101106.18;125549;1099;102014;-79
2023/04/09 02:45:51;;;;;;;49.60;32.13;;;;;;;7.14;85.37;101101.85;124863;1099;101835;-78
2023/04/09 02:48:24;;;;;;;50.03;32.20;;;;;;;7.13;85.73;101104.37;124921;1099;101892;-79
2023/04/09 02:50:57;;;;;;;49.07;32.43;;;;;;;7.12;85.68;101111.31;125461;1099;104038;-79
2023/04/09 02:53:29;;;;;;;48.23;31.43;;;;;;;7.09;85.33;101100.69;124973;1099;101649;-79
2023/04/09 02:56:01;;;;;;;50.93;32.10;;;;;;;7.10;86.17;101107.69;125482;1099;103961;-78
2023/04/09 02:58:33;;;;;;;48.07;32.07;;;;;;;7.12;85.98;101113.00;125562;1099;103868;-78
2023/04/09 03:01:06;;;;;;;49.37;31.77;;;;;;;7.10;85.49;101110.30;125581;1099;103966;-78
2023/04/09 03:03:40;;;;;;;50.33;33.00;;;;;;;7.11;85.98;101108.61;124822;1099;104136;-78
2023/04/09 03:06:13;;;;;;;48.47;30.60;;;;;;;7.11;85.73;101108.61;125170;1099;102108;-79
2023/04/09 03:08:45;;;;;;;46.63;30.70;;;;;;;7.10;85.88;101106.80;125280;1099;101675;-79
2023/04/09 03:11:17;;;;;;;50.07;31.07;;;;;;;7.10;85.82;101112.02;124933;1099;101682;-78
2023/04/09 03:13:49;;;;;;;48.60;31.73;;;;;;;7.10;85.98;101112.02;125182;1099;101761;-78
2023/04/09 03:16:24;;;;;;;49.63;32.53;;;;;;;7.08;85.91;101103.20;125572;1099;101574;-79
2023/04/09 03:18:56;;;;;;;47.63;30.23;;;;;;;7.06;85.85;101108.34;125555;1098;102855;-80
2023/04/09 03:21:28;;;;;;;51.00;32.17;;;;;;;7.08;86.30;101111.04;125594;1098;103941;-78
2023/04/09 03:24:01;;;;;;;46.80;30.37;;;;;;;7.04;86.28;101111.66;125287;1099;101787;-77
2023/04/09 03:26:35;;;;;;;48.00;31.77;;;;;;;7.04;86.47;101109.93;125450;1099;103893;-78
2023/04/09 03:29:09;;;;;;;46.23;30.30;;;;;;;7.02;86.35;101111.56;125377;1099;101622;-78
2023/04/09 03:31:41;;;;;;;45.47;30.67;;;;;;;7.00;86.34;101110.58;125544;1099;101642;-80
2023/04/09 03:34:13;;;;;;;48.00;31.33;;;;;;;6.99;86.57;101108.77;125588;1099;103941;-78
2023/04/09 03:36:46;;;;;;;49.00;30.73;;;;;;;6.99;86.36;101103.55;125350;1099;103945;-79
2023/04/09 03:39:29;;;;;;;48.33;31.33;;;;;;;6.99;86.62;101111.37;125493;1099;101929;-79
2023/04/09 03:42:01;;;;;;;47.07;29.93;;;;;;;6.97;86.45;101110.39;125385;1099;102468;-77
2023/04/09 03:44:37;;;;;;;50.83;32.27;;;;;;;6.99;86.52;101108.77;124987;1099;101928;-78
2023/04/09 03:47:13;;;;;;;49.90;30.87;;;;;;;7.01;86.34;101108.06;125444;1099;104009;-78
2023/04/09 03:49:45;;;;;;;48.43;30.13;;;;;;;7.02;86.46;101109.84;125347;1099;104092;-79
2023/04/09 03:52:29;;;;;;;46.30;30.93;;;;;;;7.04;86.54;101102.10;125036;1099;101705;-77
2023/04/09 03:55:11;;;;;;;49.57;31.17;;;;;;;7.07;86.32;101112.72;125449;1099;110870;-79
2023/04/09 03:57:43;;;;;;;47.80;30.93;;;;;;;7.10;86.85;101107.69;124974;1099;101654;-79
2023/04/09 04:00:19;;;;;;;49.60;31.50;;;;;;;7.10;86.75;101110.30;125542;1098;101809;-79
2023/04/09 04:03:17;;;;;;;45.97;30.17;;;;;;;7.12;86.86;101105.17;125581;1099;101748;-81
2023/04/09 04:06:02;;;;;;;;;;;;;;;7.10;86.55;101105.08;124944;1099;101980;-78
2023/04/09 04:08:37;;;;;;;48.17;29.97;;;;;;;7.13;87.01;101104.37;124946;1099;101731;-78
2023/04/09 04:11:09;;;;;;;46.63;30.17;;;;;;;7.15;86.67;101116.72;124963;1099;101787;-79
2023/04/09 04:13:42;;;;;;;47.03;30.43;;;;;;;7.17;87.07;101112.47;125032;1099;103254;-79
2023/04/09 04:16:15;;;;;;;46.13;30.53;;;;;;;7.20;87.33;101104.83;125484;1099;101842;-78
2023/04/09 04:18:47;;;;;;;44.77;30.80;;;;;;;7.25;86.90;101106.81;125465;1099;101663;-81
2023/04/09 04:21:20;;;;;;;48.83;30.47;;;;;;;7.29;87.00;101114.92;125291;1099;101486;-81
2023/04/09 04:24:00;;;;;;;45.60;30.13;;;;;;;7.33;87.20;101113.38;125315;1099;101913;-78
2023/04/09 04:26:36;;;;;;;44.63;29.53;;;;;;;7.36;86.77;101110.95;125197;1099;103141;-78
2023/04/09 04:29:09;;;;;;;44.23;29.50;;;;;;;7.41;86.59;101114.72;125038;1099;104088;-77
2023/04/09 04:32:04;;;;;;;44.53;29.50;;;;;;;7.48;87.03;101111.66;125471;1099;101699;-78
2023/04/09 04:34:40;;;;;;;45.00;29.65;;;;;;;7.53;86.78;101110.20;125373;1098;101605;-78
2023/04/09 04:37:20;;;;;;;44.13;28.83;;;;;;;7.61;86.68;101112.38;125437;1099;101695;-80
2023/04/09 04:39:53;;;;;;;41.90;27.35;;;;;;;7.66;87.14;101109.19;125303;1099;101999;-80
2023/04/09 04:42:25;;;;;;;43.00;28.23;;;;;;;7.69;86.44;101106.75;125459;1099;103980;-78
2023/04/09 04:44:57;;;;;;;46.37;29.30;;;;;;;7.71;86.57;101118.21;125143;1099;104130;-77
2023/04/09 04:47:51;;;;;;;44.53;28.47;;;;;;;7.74;85.85;101120.08;124973;1099;101986;-78
2023/04/09 04:50:23;;;;;;;42.93;27.70;;;;;;;7.77;86.18;101114.14;125554;1099;103961;-81
2023/04/09 04:53:05;;;;;;;43.60;27.43;;;;;;;7.78;86.28;101116.84;125173;1099;102316;-81
2023/04/09 04:55:42;;;;;;;41.73;27.43;;;;;;;7.81;86.27;101114.40;125531;1099;102086;-80
2023/04/09 04:58:18;;;;;;;41.23;27.23;;;;;;;7.83;86.72;101117.98;125523;1099;103942;-82
2023/04/09 05:00:53;;;;;;;43.47;28.00;;;;;;;7.84;86.81;101124.14;125621;1099;103149;-82
2023/04/09 05:03:26;;;;;;;41.70;26.13;;;;;;;7.85;86.13;101116.38;125624;1099;103984;-81
2023/04/09 05:06:09;;;;;;;42.53;27.52;;;;;;;7.87;86.71;101113.86;125023;1099;101806;-82
2023/04/09 05:08:47;;;;;;;44.43;28.97;;;;;;;7.89;86.64;101122.67;124953;1099;103961;-82
2023/04/09 05:11:20;;;;;;;45.67;27.43;;;;;;;7.94;86.29;101118.59;124988;1099;104043;-83
2023/04/09 05:13:53;;;;;;;43.70;26.43;;;;;;;8.01;86.43;101127.67;125239;1099;103945;-82
2023/04/09 05:16:25;;;;;;;41.77;27.63;;;;;;;8.07;85.71;101128.94;125292;1099;104105;-83
2023/04/09 05:19:05;;;;;;;41.67;27.03;;;;;;;8.15;86.32;101131.98;125189;1099;103977;-81
2023/04/09 05:21:37;;;;;;;43.33;27.33;;;;;;;8.21;85.94;101124.48;125203;1099;103970;-82
2023/04/09 05:24:10;;;;;;;38.83;27.03;;;;;;;8.28;85.89;101121.36;125345;1099;101623;-84
2023/04/09 05:26:42;;;;;;;40.23;26.33;;;;;;;8.37;85.50;101125.31;125311;1099;104031;-85
2023/04/09 05:29:16;;;;;;;39.40;25.87;;;;;;;8.44;85.64;101127.46;125105;1099;101578;-83
2023/04/09 05:31:48;;;;;;;38.38;26.25;;;;;;;8.51;85.28;101128.69;125721;1098;104043;-82
2023/04/09 05:34:31;;;;;;;40.47;26.17;;;;;;;8.59;85.30;101130.91;125008;1099;103011;-81
2023/04/09 05:37:03;;;;;;;41.30;26.27;;;;;;;8.70;85.48;101130.59;125216;1099;103942;-79
2023/04/09 05:39:36;;;;;;;43.00;26.97;;;;;;;8.78;85.50;101132.78;125083;1099;104105;-80
2023/04/09 05:42:09;;;;;;;40.23;26.70;;;;;;;8.87;85.61;101134.11;125402;1099;101886;-82
2023/04/09 05:44:59;;;;;;;41.03;26.63;;;;;;;8.93;84.48;101130.09;125352;1099;104536;-84
2023/04/09 05:47:32;;;;;;;39.47;24.47;;;;;;;9.01;83.82;101133.11;125135;1099;107017;-81
2023/04/09 05:50:12;;;;;;;37.33;25.00;;;;;;;9.09;84.77;101137.02;125300;1099;103939;-81
2023/04/09 05:52:44;;;;;;;;;;;;;;;9.14;82.42;101129.39;125509;1099;101863;-82
2023/04/09 05:55:17;;;;;;;42.50;26.40;;;;;;;9.20;83.68;101139.30;125500;1099;103952;-79
2023/04/09 05:57:55;;;;;;;40.83;25.33;;;;;;;9.26;84.61;101132.64;124963;1099;117663;-81
2023/04/09 06:00:27;;;;;;;39.97;25.23;;;;;;;9.32;83.13;101130.34;125538;1099;101762;-81
2023/04/09 06:02:59;;;;;;;38.93;25.20;;;;;;;9.42;83.57;101136.94;125178;1099;101543;-82
2023/04/09 06:05:32;;;;;;;41.43;26.70;;;;;;;9.50;83.47;101139.94;125633;1099;104039;-82
2023/04/09 06:08:05;;;;;;;38.47;24.77;;;;;;;9.57;83.28;101138.52;125555;1099;101576;-83
2023/04/09 06:10:38;;;;;;;40.20;26.10;;;;;;;9.64;82.92;101140.63;125353;1099;101837;-82
2023/04/09 06:13:11;;;;;;;38.73;24.87;;;;;;;9.73;82.63;101142.83;125526;1099;101699;-83
2023/04/09 06:15:43;;;;;;;38.02;24.52;;;;;;;9.82;82.64;101143.27;125666;1099;101875;-78
2023/04/09 06:18:16;;;;;;;38.27;24.67;;;;;;;9.92;82.45;101140.26;125590;1099;101925;-82
2023/04/09 06:20:48;;;;;;;40.43;25.10;;;;;;;10.01;82.01;101134.58;125434;1099;101622;-82
2023/04/09 06:23:20;;;;;;;38.27;23.67;;;;;;;10.12;82.20;101141.22;125045;1099;101763;-83
2023/04/09 06:25:52;;;;;;;37.07;23.73;;;;;;;10.22;80.75;101143.47;125469;1099;104037;-82
2023/04/09 06:28:25;;;;;;;35.83;23.53;;;;;;;10.34;81.25;101144.90;125671;1098;103020;-82
2023/04/09 06:30:57;;;;;;;34.70;22.95;;;;;;;10.45;81.58;101145.40;125504;1098;101608;-82
2023/04/09 06:33:29;;;;;;;36.10;23.57;;;;;;;10.52;79.33;101137.00;125601;1099;101673;-83
2023/04/09 06:36:01;;;;;;;36.80;23.53;;;;;;;10.56;79.83;101137.17;125471;1099;104150;-81
2023/04/09 06:38:34;;;;;;;37.00;22.95;;;;;;;10.63;79.48;101134.83;125526;1099;107938;-81
2023/04/09 06:41:07;;;;;;;34.13;22.17;;;;;;;10.71;79.19;101131.73;125563;1099;103941;-83
2023/04/09 06:43:40;;;;;;;36.95;22.37;;;;;;;10.81;79.40;101133.05;125603;1099;101842;-83
2023/04/09 06:46:16;;;;;;;35.63;22.40;;;;;;;10.89;77.90;101129.05;124902;1099;101939;-84
2023/04/09 06:48:48;;;;;;;35.30;22.63;;;;;;;10.99;79.30;101130.34;125002;1099;118535;-84
2023/04/09 06:51:21;;;;;;;33.53;21.60;;;;;;;11.13;78.34;101137.09;125481;1099;101974;-83
2023/04/09 06:53:53;;;;;;;33.47;21.43;;;;;;;11.26;76.38;101127.12;125425;1099;104040;-83
2023/04/09 06:56:25;;;;;;;32.67;22.47;;;;;;;11.43;76.78;101126.09;125634;1099;101714;-83
2023/04/09 06:58:57;;;;;;;35.75;21.50;;;;;;;11.57;77.22;101129.31;125012;1099;104082;-83
2023/04/09 07:01:30;;;;;;;33.03;21.23;;;;;;;11.71;73.44;101132.51;125679;1099;101842;-83
2023/04/09 07:04:02;;;;;;;33.37;20.40;;;;;;;11.86;74.86;101114.73;125619;1098;102976;-82
2023/04/09 07:06:35;;;;;;;32.63;20.80;;;;;;;12.05;75.63;101124.28;125707;1099;103948;-82
2023/04/09 07:09:07;;;;;;;31.57;20.03;;;;;;;12.20;73.67;101112.55;125563;1099;103418;-81
2023/04/09 07:11:39;;;;;;;29.77;19.97;;;;;;;12.31;74.88;101112.97;125401;1099;104009;-83
2023/04/09 07:14:12;;;;;;;31.50;19.63;;;;;;;12.44;74.72;101114.36;125439;1098;103999;-81
2023/04/09 07:16:45;;;;;;;32.03;19.97;;;;;;;12.53;73.02;101119.98;125518;1099;103431;-82
2023/04/09 07:19:17;;;;;;;31.42;19.98;;;;;;;12.62;72.48;101116.77;125608;1099;104006;-86
2023/04/09 07:21:49;;;;;;;29.70;19.67;;;;;;;12.67;72.70;101125.73;125414;1099;102146;-83
2023/04/09 07:24:22;;;;;;;28.33;18.10;;;;;;;12.69;73.04;101124.06;125615;1099;103961;-83
2023/04/09 07:26:55;;;;;;;31.10;19.10;;;;;;;12.75;73.22;101127.81;125378;1099;104166;-82
2023/04/09 07:29:27;;;;;;;30.43;19.43;;;;;;;12.86;72.64;101122.94;125466;1099;101947;-85
2023/04/09 07:32:01;;;;;;;29.70;18.57;;;;;;;12.94;72.93;101120.59;125569;1099;102005;-84
2023/04/09 07:34:32;;;;;;;;;;;;;;;13.02;70.50;101131.40;125044;1099;103945;-83
2023/04/09 07:37:05;;;;;;;29.97;18.87;;;;;;;13.09;71.53;101126.41;125534;1099;101817;-83
2023/04/09 07:39:38;;;;;;;30.23;19.10;;;;;;;13.15;70.04;101133.64;125227;1099;104034;-83
2023/04/09 07:42:10;;;;;;;32.00;18.77;;;;;;;13.23;70.53;101126.89;125600;1099;103955;-86
2023/04/09 07:44:42;;;;;;;28.00;18.30;;;;;;;13.30;71.49;101126.23;125603;1098;101718;-84
2023/04/09 07:47:15;;;;;;;29.17;17.40;;;;;;;13.43;72.05;101124.06;125512;1099;104043;-84
2023/04/09 07:49:47;;;;;;;30.23;17.27;;;;;;;13.48;69.84;101130.41;125611;1099;103993;-85
2023/04/09 07:52:20;;;;;;;32.00;18.73;;;;;;;13.58;70.17;101137.77;125224;1099;104110;-85
2023/04/09 07:54:52;;;;;;;25.93;17.10;;;;;;;13.58;67.95;101127.22;125597;1099;103958;-83
2023/04/09 07:57:24;;;;;;;26.73;17.00;;;;;;;13.62;69.45;101129.13;125554;1099;102214;-84
2023/04/09 07:59:57;;;;;;;27.25;17.85;;;;;;;13.70;69.59;101123.19;125571;1099;101879;-84
2023/04/09 08:02:29;;;;;;;29.97;18.37;;;;;;;13.74;68.77;101125.09;126125;1099;104031;-85
2023/04/09 08:05:02;;;;;;;27.97;17.27;;;;;;;13.77;70.75;101125.19;125511;1099;101841;-86
2023/04/09 08:07:34;;;;;;;26.20;16.70;;;;;;;13.82;68.27;101126.22;125037;1099;104239;-83
2023/04/09 08:10:12;;;;;;;29.80;18.90;;;;;;;13.87;68.07;101129.93;125532;1099;103974;-85
2023/04/09 08:12:45;;;;;;;27.87;18.03;;;;;;;13.88;65.22;101123.78;125529;1098;103949;-84
2023/04/09 08:15:17;;;;;;;26.23;17.50;;;;;;;13.97;68.08;101125.83;125519;1099;101903;-83
2023/04/09 08:17:50;;;;;;;27.63;17.00;;;;;;;14.05;68.41;101126.08;125543;1098;103021;-84
2023/04/09 08:20:25;;;;;;;26.47;17.23;;;;;;;14.12;66.60;101118.41;125587;1099;102986;-85
2023/04/09 08:22:58;;;;;;;28.53;17.27;;;;;;;14.22;68.37;101121.33;125820;1099;103961;-83
2023/04/09 08:25:30;;;;;;;26.53;16.27;;;;;;;14.26;65.83;101118.83;125638;1099;104044;-83
2023/04/09 08:28:03;;;;;;;28.77;16.60;;;;;;;14.34;65.60;101124.34;125614;1098;103951;-84
2023/04/09 08:30:35;;;;;;;27.07;16.27;;;;;;;14.38;66.02;101118.28;125700;1099;104061;-85
2023/04/09 08:33:07;;;;;;;27.23;16.23;;;;;;;14.45;65.81;101119.39;125490;1099;102030;-84
2023/04/09 08:35:40;;;;;;;25.20;16.00;;;;;;;14.47;64.57;101125.60;125800;1099;102155;-84
2023/04/09 08:38:13;;;;;;;24.43;15.20;;;;;;;14.56;65.29;101118.84;125713;1099;102115;-84
2023/04/09 08:40:46;;;;;;;24.92;15.40;;;;;;;14.64;66.47;101113.81;125523;1099;104044;-83
2023/04/09 08:43:19;;;;;;;25.97;15.40;;;;;;;14.65;63.53;101112.97;125703;1099;104061;-83
2023/04/09 08:45:52;;;;;;;24.90;15.23;;;;;;;14.74;61.83;101121.16;125337;1099;102194;-84
2023/04/09 08:48:26;;;;;;;23.87;14.38;;;;;;;14.84;63.46;101109.09;126188;1099;102008;-84
2023/04/09 08:50:58;;;;;;;24.15;13.75;;;;;;;14.88;62.47;101105.70;125575;1099;101914;-83
2023/04/09 08:53:30;;;;;;;24.07;13.73;;;;;;;14.93;62.57;101113.75;125586;1098;104002;-82
2023/04/09 08:56:03;;;;;;;22.83;14.10;;;;;;;14.97;61.84;101102.39;125654;1098;103939;-83
2023/04/09 08:58:35;;;;;;;21.73;12.47;;;;;;;14.92;60.44;101114.59;125486;1099;104089;-81
2023/04/09 09:01:20;;;;;;;21.33;12.27;;;;;;;15.02;63.23;101105.16;125515;1099;104093;-83
2023/04/09 09:04:00;;;;;;;18.73;11.13;;;;;;;15.00;59.54;101107.77;125502;1099;103942;-80
2023/04/09 09:06:34;;;;;;;18.50;11.07;;;;;;;14.91;54.51;101111.07;125712;1099;103970;-83
2023/04/09 09:09:08;;;;;;;16.60;9.57;;;;;;;15.01;58.38;101098.11;125612;1098;101797;-82
2023/04/09 09:11:42;;;;;;;14.50;7.73;;;;;;;15.00;58.03;101096.31;125609;1099;108212;-82
2023/04/09 09:14:13;;;;;;;;;;;;;;;15.01;57.36;101100.75;125775;1099;103952;-83
2023/04/09 09:17:03;;;;;;;19.33;10.07;;;;;;;15.08;58.25;101098.32;125653;1099;104041;-82
2023/04/09 09:19:36;;;;;;;15.63;9.33;;;;;;;15.04;52.60;101101.72;125500;1099;103948;-83
2023/04/09 09:22:12;;;;;;;17.53;9.93;;;;;;;15.17;58.50;101092.36;125254;1099;117667;-84
2023/04/09 09:24:50;;;;;;;17.27;10.07;;;;;;;15.31;59.48;101089.20;125747;1099;101730;-83
2023/04/09 09:27:38;;;;;;;17.10;9.97;;;;;;;15.31;57.04;101094.48;125028;1099;104031;-80
2023/04/09 09:30:20;;;;;;;18.40;9.97;;;;;;;15.43;59.38;101090.39;125531;1099;101666;-78
2023/04/09 09:33:04;;;;;;;16.83;9.63;;;;;;;15.59;58.85;101085.48;125515;1099;104037;-79
2023/04/09 09:35:51;;;;;;;17.27;9.65;;;;;;;15.71;58.76;101085.79;125502;1099;101769;-79
2023/04/09 09:38:23;;;;;;;14.73;8.93;;;;;;;15.74;56.49;101083.22;125611;1099;104140;-83
2023/04/09 09:40:56;;;;;;;16.77;9.37;;;;;;;15.76;52.86;101088.55;125457;1099;103957;-80
2023/04/09 09:43:41;;;;;;;16.43;9.10;;;;;;;15.78;56.04;101076.27;125461;1099;101600;-80
2023/04/09 09:46:14;;;;;;;15.03;8.13;;;;;;;15.86;55.56;101079.09;126008;1099;102216;-78
2023/04/09 09:48:48;;;;;;;16.23;9.07;;;;;;;15.88;56.79;101078.28;125331;1099;102130;-80
2023/04/09 09:51:25;;;;;;;16.90;8.35;;;;;;;15.83;54.33;101079.91;125575;1099;101635;-80
2023/04/09 09:53:58;;;;;;;16.30;9.00;;;;;;;15.80;53.66;101075.45;125076;1099;104006;-82
2023/04/09 09:56:35;;;;;;;16.10;8.50;;;;;;;15.85;54.66;101070.27;125730;1098;103955;-80
2023/04/09 09:59:20;;;;;;;14.03;8.17;;;;;;;15.81;53.87;101081.63;125630;1097;102044;-80
2023/04/09 10:01:58;;;;;;;14.63;8.43;;;;;;;15.71;52.49;101069.91;125210;1099;102272;-82
2023/04/09 10:04:33;;;;;;;13.23;7.87;;;;;;;15.74;54.65;101064.70;125753;1099;103951;-80
2023/04/09 10:07:07;;;;;;;15.40;8.40;;;;;;;15.72;52.94;101068.16;125660;1099;103993;-82
2023/04/09 10:09:40;;;;;;;;;;;;;;;15.63;49.31;101067.08;125694;1099;101910;-82
2023/04/09 10:12:13;;;;;;;15.13;7.70;;;;;;;15.64;51.35;101067.97;126211;1099;104062;-81
2023/04/09 10:14:47;;;;;;;14.67;7.97;;;;;;;15.57;52.26;101073.98;125767;1099;104350;-80
2023/04/09 10:17:19;;;;;;;12.20;7.20;;;;;;;15.62;52.92;101065.28;125976;1099;104040;-83
2023/04/09 10:19:59;;;;;;;12.30;7.50;;;;;;;15.74;52.65;101061.17;125989;1099;103437;-79
2023/04/09 10:22:35;;;;;;;15.33;7.90;;;;;;;15.92;53.55;101052.77;125764;1099;103954;-82
2023/04/09 10:25:08;;;;;;;13.90;7.70;;;;;;;16.03;52.51;101039.78;125842;1099;102083;-81
2023/04/09 10:27:39;;;;;;;;;;;;;;;15.95;47.04;101044.91;125716;1099;102422;-84
2023/04/09 10:30:30;;;;;;;15.27;8.17;;;;;;;15.92;51.22;101043.07;125537;1099;104136;-83
2023/04/09 10:33:25;;;;;;;19.30;10.43;;;;;;;15.91;53.35;101035.09;125642;1099;102076;-82
2023/04/09 10:36:03;;;;;;;15.65;8.43;;;;;;;15.91;52.21;101032.45;125620;1099;101817;-81
2023/04/09 10:38:40;;;;;;;16.53;9.03;;;;;;;15.89;51.88;101031.53;126266;1098;103977;-82
2023/04/09 10:41:16;;;;;;;14.60;8.43;;;;;;;15.95;52.17;101032.55;125534;1099;102021;-80
2023/04/09 10:43:49;;;;;;;14.13;8.07;;;;;;;16.06;52.36;101031.91;125632;1099;107096;-82
2023/04/09 10:46:34;;;;;;;15.13;8.13;;;;;;;16.08;51.37;101030.17;125463;1098;103983;-83
2023/04/09 10:49:19;;;;;;;14.90;8.30;;;;;;;16.07;52.24;101026.64;125685;1098;103890;-83
2023/04/09 10:51:51;;;;;;;;;;;;;;;16.03;48.09;101023.90;126790;1098;101874;-86
2023/04/09 10:54:44;;;;;;;14.03;8.33;;;;;;;16.12;52.32;101018.80;125624;1099;101726;-83
2023/04/09 10:57:19;;;;;;;13.37;7.60;;;;;;;16.18;51.84;101008.34;125638;1099;102925;-83
2023/04/09 10:59:53;;;;;;;14.17;7.80;;;;;;;16.16;50.53;101018.91;125718;1099;102022;-81
2023/04/09 11:03:11;;;;;;;13.57;7.00;;;;;;;16.13;47.83;101010.89;125826;1099;101911;-83
2023/04/09 11:05:48;;;;;;;14.30;7.80;;;;;;;16.17;51.18;101009.20;126070;1099;101850;-82
2023/04/09 11:08:21;;;;;;;11.87;6.60;;;;;;;16.05;47.64;101019.52;125263;1099;101658;-85
2023/04/09 11:10:57;;;;;;;14.25;6.58;;;;;;;16.10;50.84;101008.19;125116;1099;102027;-83
2023/04/09 11:13:30;;;;;;;11.57;6.73;;;;;;;16.20;50.86;101005.73;125867;1099;101601;-82
2023/04/09 11:16:05;;;;;;;12.35;7.15;;;;;;;16.33;51.58;100999.80;125872;1098;101618;-82
2023/04/09 11:18:37;;;;;;;12.93;7.07;;;;;;;16.41;51.11;101002.61;125879;1099;101564;-82
2023/04/09 11:21:11;;;;;;;13.87;7.27;;;;;;;16.36;50.34;101002.52;125729;1099;103942;-82
2023/04/09 11:23:51;;;;;;;13.98;7.87;;;;;;;16.33;51.17;100990.13;125748;1099;102025;-83
2023/04/09 11:26:35;;;;;;;15.17;7.67;;;;;;;16.24;49.73;100997.00;125688;1099;102049;-85
2023/04/09 11:29:10;;;;;;;14.45;7.78;;;;;;;15.92;48.17;100998.08;125769;1099;101628;-85
2023/04/09 11:31:45;;;;;;;15.67;8.40;;;;;;;15.76;50.43;100998.59;126030;1099;104399;-84
2023/04/09 11:34:17;;;;;;;14.23;7.97;;;;;;;15.52;49.71;100993.61;126026;1099;104006;-84
2023/04/09 11:36:51;;;;;;;16.27;8.50;;;;;;;15.36;49.13;100993.25;125875;1099;102186;-84